Time;durP1;ratioP1;P1;durP2;ratioP2;P2;SDS_P1;SDS_P2;PMS_P1;PMS_P2;Temp;Humidity;BMP_temperature;BMP_pressure;BME280_temperature;BME280_humidity;BME280_pressure;Samples;Min_cycle;Max_cycle;Signal;HPM_P1;HPM_P2
2022/05/10 00:00:14;;;;;;;18.17;13.17;;;;;;;15.86;59.83;101425.88;687966;28;1281;-80
2022/05/10 00:00:35;;;;;;;17.73;13.10;;;;;;;15.85;59.77;101424.97;685017;28;1181;-79
2022/05/10 00:00:58;;;;;;;18.00;13.57;;;;;;;15.87;59.82;101428.50;687127;28;1276;-80
2022/05/10 00:01:28;;;;;;;19.05;14.63;;;;;;;15.89;59.78;101429.44;685059;28;1086;-79
2022/05/10 00:01:50;;;;;;;20.35;14.65;;;;;;;15.95;59.79;101426.00;688934;28;2005;-79
2022/05/10 00:02:13;;;;;;;20.33;14.45;;;;;;;15.86;59.79;101421.47;690575;28;1122;-79
2022/05/10 00:02:34;;;;;;;19.73;14.15;;;;;;;15.87;59.80;101428.50;687805;28;855;-79
2022/05/10 00:02:57;;;;;;;19.20;14.35;;;;;;;15.86;60.13;101424.09;692736;28;1472;-79
2022/05/10 00:03:18;;;;;;;19.77;14.13;;;;;;;15.83;60.02;101421.44;695857;28;1214;-79
2022/05/10 00:03:39;;;;;;;19.70;13.80;;;;;;;15.81;59.94;101423.16;690407;28;1074;-78
2022/05/10 00:04:01;;;;;;;21.60;14.07;;;;;;;15.83;59.90;101431.97;690448;28;1394;-79
2022/05/10 00:04:22;;;;;;;21.85;14.00;;;;;;;15.74;59.90;101422.16;690413;28;1347;-80
2022/05/10 00:04:51;;;;;;;20.85;14.00;;;;;;;15.78;59.97;101425.72;687125;28;1423;-80
2022/05/10 00:05:11;;;;;;;20.92;14.73;;;;;;;15.75;60.07;101423.06;682502;29;1194;-80
2022/05/10 00:05:37;;;;;;;21.30;14.95;;;;;;;15.73;60.19;101425.66;682374;29;996;-79
2022/05/10 00:05:58;;;;;;;22.77;15.00;;;;;;;15.74;59.88;101421.28;687833;28;834;-79
2022/05/10 00:06:21;;;;;;;23.00;15.05;;;;;;;15.75;60.25;101423.06;687429;28;1398;-80
2022/05/10 00:06:45;;;;;;;24.20;15.40;;;;;;;15.74;60.00;101421.28;687795;28;1485;-80
2022/05/10 00:07:05;;;;;;;28.10;16.20;;;;;;;15.75;60.18;101428.31;687765;28;1143;-80
2022/05/10 00:07:30;;;;;;;26.30;16.27;;;;;;;15.74;60.19;101426.56;685149;28;1112;-79
2022/05/10 00:07:52;;;;;;;21.80;15.23;;;;;;;15.66;60.10;101420.28;685153;28;792;-79
2022/05/10 00:08:16;;;;;;;21.17;15.13;;;;;;;15.72;60.18;101423.88;690403;28;1277;-79
2022/05/10 00:08:39;;;;;;;23.98;16.30;;;;;;;15.68;60.29;101422.03;690530;28;969;-79
2022/05/10 00:09:00;;;;;;;23.75;16.80;;;;;;;15.70;60.23;101425.59;687575;28;1195;-80
2022/05/10 00:09:27;;;;;;;21.48;15.98;;;;;;;15.69;60.24;101425.56;687665;28;1129;-79
2022/05/10 00:09:47;;;;;;;22.17;16.02;;;;;;;15.66;59.98;101417.63;687365;28;1378;-79
2022/05/10 00:10:10;;;;;;;24.97;16.37;;;;;;;15.68;60.37;101421.19;692926;28;1164;-80
2022/05/10 00:10:30;;;;;;;26.98;16.75;;;;;;;15.63;60.44;101410.56;687793;28;1087;-79
2022/05/10 00:10:56;;;;;;;27.13;16.60;;;;;;;15.66;60.15;101417.63;685273;28;1476;-80
2022/05/10 00:11:17;;;;;;;24.63;16.02;;;;;;;15.69;60.41;101417.69;687706;28;1291;-79
2022/05/10 00:11:38;;;;;;;23.67;16.10;;;;;;;15.69;60.26;101420.31;690347;28;1048;-80
2022/05/10 00:11:59;;;;;;;22.55;16.02;;;;;;;15.62;60.21;101412.31;690521;28;1216;-80
2022/05/10 00:12:20;;;;;;;22.08;16.52;;;;;;;15.62;60.36;101412.31;686864;28;1368;-79
2022/05/10 00:12:40;;;;;;;23.52;17.05;;;;;;;15.65;60.15;101410.56;692299;28;1148;-79
2022/05/10 00:13:01;;;;;;;23.10;16.60;;;;;;;15.65;60.30;101415.84;690682;28;1223;-79
2022/05/10 00:13:21;;;;;;;25.00;16.20;;;;;;;15.64;60.30;101417.59;687526;28;1971;-79
2022/05/10 00:13:42;;;;;;;23.55;15.30;;;;;;;15.65;60.06;101421.09;690310;28;1216;-79
2022/05/10 00:14:04;;;;;;;24.92;15.10;;;;;;;15.58;60.21;101415.75;687708;28;1332;-81
2022/05/10 00:14:27;;;;;;;23.85;15.88;;;;;;;15.57;60.35;101414.00;687279;28;1212;-80
2022/05/10 00:14:47;;;;;;;25.20;16.70;;;;;;;15.56;60.17;101422.72;682470;28;1353;-79
2022/05/10 00:15:09;;;;;;;27.08;17.00;;;;;;;15.50;60.27;101417.38;684388;28;1222;-80
2022/05/10 00:15:30;;;;;;;29.00;17.45;;;;;;;15.53;60.21;101422.66;685072;28;1139;-79
2022/05/10 00:15:51;;;;;;;31.20;17.73;;;;;;;15.56;60.14;101419.22;685161;28;823;-79
2022/05/10 00:16:15;;;;;;;29.50;17.57;;;;;;;15.52;60.34;101418.28;687794;28;990;-80
2022/05/10 00:16:39;;;;;;;28.50;16.85;;;;;;;15.53;60.34;101417.41;687500;28;1108;-79
2022/05/10 00:17:00;;;;;;;23.25;16.15;;;;;;;15.47;60.44;101407.69;685122;28;867;-79
2022/05/10 00:17:25;;;;;;;27.20;16.80;;;;;;;15.46;60.32;101411.16;686548;28;1270;-79
2022/05/10 00:17:48;;;;;;;27.92;17.38;;;;;;;15.48;60.60;101409.44;687329;28;2129;-79
2022/05/10 00:18:14;;;;;;;30.65;17.77;;;;;;;15.52;60.50;101415.66;685184;28;978;-79
2022/05/10 00:18:35;;;;;;;27.02;17.02;;;;;;;15.52;60.43;101415.66;687565;28;1165;-79
2022/05/10 00:18:56;;;;;;;25.27;16.67;;;;;;;15.49;60.58;101418.22;685202;28;862;-79
2022/05/10 00:19:18;;;;;;;26.08;16.80;;;;;;;15.51;60.75;101413.88;690051;28;1394;-79
2022/05/10 00:19:38;;;;;;;25.10;17.30;;;;;;;15.51;60.78;101415.59;686723;28;1328;-80
2022/05/10 00:19:59;;;;;;;24.30;17.27;;;;;;;15.47;60.63;101412.03;687970;28;1353;-79
2022/05/10 00:20:23;;;;;;;23.88;17.13;;;;;;;15.46;60.81;101410.25;693124;28;1181;-79
2022/05/10 00:20:46;;;;;;;24.77;17.02;;;;;;;15.52;60.79;101414.75;690332;28;1129;-80
2022/05/10 00:21:08;;;;;;;25.10;16.88;;;;;;;15.52;60.60;101418.28;693073;28;1022;-79
2022/05/10 00:21:29;;;;;;;23.85;16.60;;;;;;;15.52;60.64;101418.28;690339;28;1248;-80
2022/05/10 00:21:50;;;;;;;26.33;17.40;;;;;;;15.55;61.15;101420.94;687236;28;1515;-78
2022/05/10 00:22:11;;;;;;;25.38;17.50;;;;;;;15.51;60.74;101408.63;690448;28;1307;-79
2022/05/10 00:22:31;;;;;;;27.20;17.98;;;;;;;15.48;60.80;101403.28;692983;28;1238;-80
2022/05/10 00:22:52;;;;;;;28.17;17.90;;;;;;;15.52;60.72;101414.75;693146;28;1139;-80
2022/05/10 00:23:14;;;;;;;30.25;19.10;;;;;;;15.54;60.82;101416.53;690484;28;1067;-79
2022/05/10 00:23:34;;;;;;;27.90;18.65;;;;;;;15.57;60.51;101416.63;687738;28;1137;-79
2022/05/10 00:23:55;;;;;;;25.30;18.00;;;;;;;15.56;60.63;101404.31;682502;29;786;-79
2022/05/10 00:24:16;;;;;;;23.48;16.73;;;;;;;15.58;60.57;101409.59;687695;28;1175;-79
2022/05/10 00:24:38;;;;;;;22.20;16.25;;;;;;;15.53;60.67;101417.41;687250;28;1299;-79
2022/05/10 00:25:21;;;;;;;22.30;16.48;;;;;;;15.56;60.41;101416.59;685081;28;1139;-79
2022/05/10 00:25:42;;;;;;;25.65;18.42;;;;;;;15.61;60.46;101415.81;685046;28;827;-80
2022/05/10 00:26:02;;;;;;;26.08;18.48;;;;;;;15.63;60.48;101419.34;685056;28;1164;-79
2022/05/10 00:26:23;;;;;;;26.00;18.40;;;;;;;15.61;60.54;101410.53;687253;28;1391;-79
2022/05/10 00:27:05;;;;;;;25.50;17.70;;;;;;;15.69;60.29;101420.31;690465;28;1239;-79
2022/05/10 00:27:26;;;;;;;26.00;17.40;;;;;;;15.67;60.41;101416.78;690322;28;1118;-79
2022/05/10 00:27:48;;;;;;;25.67;17.65;;;;;;;15.63;60.49;101408.81;687834;28;963;-80
2022/05/10 00:28:09;;;;;;;25.48;17.50;;;;;;;15.59;60.54;101409.63;690954;28;1182;-79
2022/05/10 00:28:30;;;;;;;24.60;17.42;;;;;;;15.58;60.31;101414.84;687770;28;1350;-79
2022/05/10 00:28:51;;;;;;;23.85;17.30;;;;;;;15.59;60.39;101414.00;689588;28;1286;-79
2022/05/10 00:29:11;;;;;;;23.20;17.08;;;;;;;15.59;60.52;101407.00;687871;28;994;-80
2022/05/10 00:29:32;;;;;;;24.50;17.57;;;;;;;15.62;60.43;101409.69;689983;28;1065;-79
2022/05/10 00:29:55;;;;;;;25.15;17.17;;;;;;;15.61;60.56;101412.31;693053;28;783;-79
2022/05/10 00:30:16;;;;;;;24.30;17.40;;;;;;;15.61;60.64;101415.81;694857;28;1170;-80
2022/05/10 00:30:38;;;;;;;27.02;17.48;;;;;;;15.56;60.54;101417.47;684978;28;1412;-79
2022/05/10 00:30:59;;;;;;;26.42;17.92;;;;;;;15.54;60.59;101405.16;693127;28;858;-79
2022/05/10 00:31:20;;;;;;;27.23;17.85;;;;;;;15.57;60.63;101414.00;693220;28;1071;-80
2022/05/10 00:31:41;;;;;;;26.60;17.75;;;;;;;15.61;60.57;101415.81;687548;28;1231;-79
2022/05/10 00:32:02;;;;;;;26.88;18.05;;;;;;;15.57;60.86;101406.09;693122;28;1177;-79
2022/05/10 00:32:28;;;;;;;28.00;18.27;;;;;;;15.60;60.56;101414.03;687608;28;1317;-79
2022/05/10 00:32:49;;;;;;;27.30;17.90;;;;;;;15.60;60.47;101403.50;693214;28;721;-79
2022/05/10 00:33:26;;;;;;;25.95;17.30;;;;;;;15.61;60.51;101402.66;690387;28;1044;-79
2022/05/10 00:33:47;;;;;;;23.60;16.77;;;;;;;15.58;60.57;101404.34;690604;28;2204;-79
2022/05/10 00:34:08;;;;;;;24.40;16.85;;;;;;;15.58;60.59;101401.69;693659;28;1263;-79
2022/05/10 00:34:29;;;;;;;25.10;17.60;;;;;;;15.51;60.43;101390.19;696288;28;1219;-79
2022/05/10 00:34:50;;;;;;;24.92;17.60;;;;;;;15.58;60.52;101409.59;688200;28;1257;-81
2022/05/10 00:35:15;;;;;;;24.60;17.73;;;;;;;15.56;60.41;101403.44;688176;28;1516;-79
2022/05/10 00:35:36;;;;;;;24.75;17.10;;;;;;;15.52;60.48;101394.59;688049;28;1301;-79
2022/05/10 00:35:58;;;;;;;24.38;17.10;;;;;;;15.56;60.36;101399.03;685613;28;1283;-79
2022/05/10 00:36:22;;;;;;;23.92;17.17;;;;;;;15.51;60.55;101398.09;693230;28;1167;-79
2022/05/10 00:36:43;;;;;;;23.98;17.25;;;;;;;15.51;60.59;101405.97;687550;28;1386;-80
2022/05/10 00:37:04;;;;;;;24.88;16.95;;;;;;;15.55;60.36;101396.41;688269;28;1144;-79
2022/05/10 00:37:25;;;;;;;27.42;16.75;;;;;;;15.62;60.32;101406.19;685430;28;1369;-79
2022/05/10 00:37:48;;;;;;;25.42;16.13;;;;;;;15.62;60.35;101406.19;682835;29;1225;-79
2022/05/10 00:38:10;;;;;;;23.80;15.73;;;;;;;15.58;60.09;101405.22;685537;28;1457;-79
2022/05/10 00:38:35;;;;;;;21.45;15.45;;;;;;;15.54;60.13;101392.88;690941;28;1273;-80
2022/05/10 00:38:56;;;;;;;23.35;16.08;;;;;;;15.52;59.96;101399.88;693580;28;1046;-79
2022/05/10 00:39:17;;;;;;;24.53;16.77;;;;;;;15.54;59.97;101403.41;688169;28;1191;-79
2022/05/10 00:39:38;;;;;;;24.30;16.70;;;;;;;15.51;60.00;101408.63;690234;28;1259;-79
2022/05/10 00:39:58;;;;;;;21.73;15.63;;;;;;;15.52;60.10;101407.75;687708;28;1416;-80
2022/05/10 00:40:23;;;;;;;22.00;15.80;;;;;;;15.49;60.24;101391.94;690855;28;1303;-79
2022/05/10 00:40:43;;;;;;;22.33;15.50;;;;;;;15.51;60.01;101405.97;690570;28;1481;-80
2022/05/10 00:41:21;;;;;;;23.40;15.50;;;;;;;15.49;60.13;101399.81;690881;28;1153;-79
2022/05/10 00:41:44;;;;;;;23.05;15.80;;;;;;;15.51;60.08;101408.63;687476;28;2014;-79
2022/05/10 00:42:14;;;;;;;23.48;16.10;;;;;;;15.45;60.25;101392.72;685598;28;1697;-79
2022/05/10 00:42:59;;;;;;;22.45;16.15;;;;;;;15.43;60.15;101397.06;688174;28;898;-79
2022/05/10 00:43:31;;;;;;;20.52;15.10;;;;;;;15.46;60.30;101402.38;688127;28;1366;-80
2022/05/10 00:43:58;;;;;;;22.95;15.35;;;;;;;15.43;60.12;101397.94;693687;28;1432;-80
2022/05/10 00:44:25;;;;;;;22.05;15.45;;;;;;;15.45;60.49;101403.25;690901;28;1234;-79
2022/05/10 00:44:51;;;;;;;22.10;15.75;;;;;;;15.49;60.22;101405.94;688324;28;1079;-79
2022/05/10 00:45:15;;;;;;;21.73;15.90;;;;;;;15.46;60.25;101400.66;687556;28;1982;-79
2022/05/10 00:45:50;;;;;;;20.42;15.75;;;;;;;15.47;60.05;101391.00;690097;28;1130;-79
2022/05/10 00:46:23;;;;;;;21.23;16.08;;;;;;;15.47;59.97;101386.63;690847;28;1255;-79
2022/05/10 00:47:28;;;;;;;23.17;16.70;;;;;;;15.47;60.15;101401.50;688135;28;1066;-79
2022/05/10 00:48:11;;;;;;;23.13;15.50;;;;;;;15.48;60.36;101409.44;690367;28;1260;-80
2022/05/10 00:48:47;;;;;;;23.30;16.40;;;;;;;15.49;60.45;101400.69;686436;28;855;-79
2022/05/10 00:49:11;;;;;;;21.85;16.05;;;;;;;15.44;60.50;101396.22;687415;28;1072;-80
2022/05/10 00:49:57;;;;;;;20.05;15.57;;;;;;;15.46;60.33;101405.91;684921;28;1404;-79
2022/05/10 00:50:25;;;;;;;23.00;15.48;;;;;;;15.44;60.52;101398.84;682775;29;1215;-79
2022/05/10 00:50:52;;;;;;;22.30;15.32;;;;;;;15.44;60.32;101396.22;688081;28;1252;-79
2022/05/10 00:51:36;;;;;;;21.25;15.13;;;;;;;15.45;60.54;101404.13;691375;28;1466;-79
2022/05/10 00:52:07;;;;;;;22.13;15.07;;;;;;;15.46;60.50;101399.75;690980;28;884;-79
2022/05/10 00:52:57;;;;;;;21.60;15.25;;;;;;;15.40;60.35;101397.00;693439;28;1035;-80
2022/05/10 00:53:35;;;;;;;21.25;15.40;;;;;;;15.46;60.67;101405.00;685383;28;1919;-79
2022/05/10 00:53:58;;;;;;;20.17;15.13;;;;;;;15.45;60.54;101400.59;685507;28;870;-79
2022/05/10 00:54:31;;;;;;;18.85;14.85;;;;;;;15.44;60.53;101404.09;685378;28;1387;-79
2022/05/10 00:57:13;;;;;;;20.13;14.68;;;;;;;15.37;60.35;101407.47;688175;28;697;-80
2022/05/10 00:57:34;;;;;;;20.35;14.85;;;;;;;15.36;60.54;101409.22;681971;29;2054;-79
2022/05/10 00:58:15;;;;;;;20.85;15.05;;;;;;;15.32;60.48;101395.13;676890;29;1298;-79
2022/05/10 00:58:48;;;;;;;20.67;15.05;;;;;;;15.32;60.39;101402.13;684527;28;1137;-80
2022/05/10 00:59:21;;;;;;;20.35;14.90;;;;;;;15.32;60.58;101403.00;690214;28;2242;-79
2022/05/10 01:00:02;;;;;;;21.85;14.45;;;;;;;15.31;60.20;101406.50;691161;28;784;-79
2022/05/10 01:00:26;;;;;;;21.75;14.48;;;;;;;15.32;60.54;101400.38;686882;28;1146;-80
2022/05/10 01:00:49;;;;;;;21.55;14.35;;;;;;;15.32;60.62;101403.00;682902;29;807;-79
2022/05/10 01:01:16;;;;;;;21.25;14.23;;;;;;;15.30;60.63;101399.47;688110;28;1237;-79
2022/05/10 01:01:38;;;;;;;20.13;14.18;;;;;;;15.27;60.49;101390.63;688160;28;1032;-79
2022/05/10 01:02:10;;;;;;;18.60;14.20;;;;;;;15.27;60.69;101396.78;680234;29;824;-79
2022/05/10 01:03:08;;;;;;;20.92;14.07;;;;;;;15.30;60.72;101399.47;688004;28;1117;-79
2022/05/10 01:03:44;;;;;;;21.88;14.32;;;;;;;15.31;60.51;101401.25;685136;28;1340;-79
2022/05/10 01:04:29;;;;;;;22.60;15.02;;;;;;;15.31;60.60;101403.88;682823;29;1029;-79
2022/05/10 01:04:55;;;;;;;19.08;13.60;;;;;;;15.31;60.93;101400.38;688147;28;1077;-79
2022/05/10 01:05:19;;;;;;;21.55;14.60;;;;;;;15.30;60.63;101407.34;691273;28;1988;-79
2022/05/10 01:06:03;;;;;;;21.52;14.85;;;;;;;15.21;60.97;101397.56;685214;28;1522;-79
2022/05/10 01:06:32;;;;;;;22.10;15.13;;;;;;;15.29;60.82;101404.69;687988;28;1029;-79
2022/05/10 01:07:49;;;;;;;21.40;14.43;;;;;;;15.24;60.78;101388.81;688293;28;780;-79
2022/05/10 01:08:23;;;;;;;22.20;14.05;;;;;;;15.30;60.59;101394.22;684152;28;1438;-79
2022/05/10 01:08:52;;;;;;;19.38;13.35;;;;;;;15.22;60.85;101385.28;683844;28;1199;-80
2022/05/10 01:09:20;;;;;;;18.33;13.48;;;;;;;15.23;60.45;101389.69;688212;28;1089;-79
2022/05/10 01:09:49;;;;;;;18.88;14.13;;;;;;;15.28;60.61;101400.28;682194;29;1997;-79
2022/05/10 01:10:22;;;;;;;20.05;14.40;;;;;;;15.24;60.64;101393.22;685252;28;1238;-78
2022/05/10 01:11:01;;;;;;;20.73;14.05;;;;;;;15.29;60.79;101402.97;688152;28;1237;-80
2022/05/10 01:11:28;;;;;;;19.42;13.13;;;;;;;15.28;60.65;101389.78;688186;28;1286;-79
2022/05/10 01:11:59;;;;;;;21.08;13.52;;;;;;;15.30;60.89;101388.94;688155;28;764;-79
2022/05/10 01:12:42;;;;;;;21.25;14.05;;;;;;;15.32;60.97;101386.34;688129;28;1218;-79
2022/05/10 01:13:28;;;;;;;19.35;13.48;;;;;;;15.37;60.80;101395.22;687646;28;1193;-79
2022/05/10 01:14:01;;;;;;;17.42;13.25;;;;;;;15.38;60.91;101390.84;685385;28;1288;-79
2022/05/10 01:14:27;;;;;;;17.35;13.43;;;;;;;15.40;60.80;101394.38;688050;28;1066;-80
2022/05/10 01:14:57;;;;;;;18.73;13.90;;;;;;;15.34;60.74;101385.53;688123;28;1342;-80
2022/05/10 01:15:22;;;;;;;20.30;14.38;;;;;;;15.39;60.59;101392.59;688185;28;1056;-79
2022/05/10 01:15:55;;;;;;;19.65;14.13;;;;;;;15.33;60.55;101389.03;685485;28;1135;-80
2022/05/10 01:16:19;;;;;;;17.73;13.70;;;;;;;15.32;60.69;101387.22;690723;28;1088;-80
2022/05/10 01:16:40;;;;;;;19.35;13.45;;;;;;;15.38;60.82;101396.09;690803;28;959;-80
2022/05/10 01:17:25;;;;;;;19.75;13.65;;;;;;;15.35;60.52;101395.19;688208;28;1111;-79
2022/05/10 01:17:47;;;;;;;21.48;13.52;;;;;;;15.33;60.43;101399.53;685560;28;832;-79
2022/05/10 01:18:08;;;;;;;20.42;13.40;;;;;;;15.33;60.51;101389.03;685543;28;1423;-79
2022/05/10 01:18:28;;;;;;;18.63;13.57;;;;;;;15.29;60.45;101384.56;685444;28;1341;-79
2022/05/10 01:18:51;;;;;;;19.77;14.10;;;;;;;15.34;60.72;101385.53;682700;29;1051;-79
2022/05/10 01:19:13;;;;;;;19.70;13.70;;;;;;;15.35;60.72;101389.94;687343;28;1214;-79
2022/05/10 01:19:34;;;;;;;21.48;13.73;;;;;;;15.30;60.48;101378.44;687669;28;1131;-79
2022/05/10 01:19:55;;;;;;;20.35;13.30;;;;;;;15.30;60.66;101378.44;685345;28;1414;-79
2022/05/10 01:20:20;;;;;;;19.60;13.50;;;;;;;15.39;60.63;101389.97;690752;28;1436;-79
2022/05/10 01:20:44;;;;;;;18.42;13.90;;;;;;;15.40;60.69;101391.75;690085;28;1347;-79
2022/05/10 01:21:38;;;;;;;17.92;13.88;;;;;;;15.41;60.59;101388.25;690786;28;1415;-79
2022/05/10 01:22:31;;;;;;;16.70;13.00;;;;;;;15.39;60.49;101387.34;693132;28;1261;-79
2022/05/10 01:22:59;;;;;;;16.90;13.50;;;;;;;15.38;60.51;101385.56;690921;28;799;-79
2022/05/10 01:23:45;;;;;;;17.33;13.30;;;;;;;15.33;60.65;101383.75;690777;28;1105;-79
2022/05/10 01:24:14;;;;;;;15.95;12.68;;;;;;;15.32;60.38;101381.09;693535;28;1023;-80
2022/05/10 01:25:12;;;;;;;17.80;13.00;;;;;;;15.30;60.53;101383.69;685491;28;1311;-79
2022/05/10 01:26:07;;;;;;;19.90;13.23;;;;;;;15.30;60.63;101382.81;677372;29;1410;-80
2022/05/10 01:26:46;;;;;;;18.67;13.77;;;;;;;15.23;60.25;101366.03;683107;28;1167;-79
2022/05/10 01:27:37;;;;;;;17.65;13.15;;;;;;;15.26;60.54;101387.13;690702;28;1133;-79
2022/05/10 01:28:19;;;;;;;17.23;13.40;;;;;;;15.26;60.61;101370.47;685262;28;1223;-79
2022/05/10 01:28:46;;;;;;;19.35;14.35;;;;;;;15.21;60.71;101366.03;687946;28;1041;-80
2022/05/10 01:29:17;;;;;;;19.10;13.60;;;;;;;15.14;60.44;101357.94;687884;28;1251;-80
2022/05/10 01:29:48;;;;;;;16.50;12.60;;;;;;;15.13;60.67;101364.94;690167;28;1242;-79
2022/05/10 01:30:18;;;;;;;14.90;12.38;;;;;;;15.17;60.58;101365.88;687934;28;1407;-79
2022/05/10 01:30:39;;;;;;;16.55;12.80;;;;;;;15.13;60.53;101359.66;682760;29;937;-79
2022/05/10 01:31:05;;;;;;;17.40;13.10;;;;;;;15.18;60.56;101375.56;688220;28;807;-79
2022/05/10 01:31:34;;;;;;;16.92;13.40;;;;;;;15.13;60.85;101370.19;687951;28;1125;-79
2022/05/10 01:33:40;;;;;;;16.58;12.50;;;;;;;15.11;60.62;101373.69;692758;28;1963;-80
2022/05/10 01:34:11;;;;;;;18.80;12.75;;;;;;;15.07;60.65;101367.47;696206;28;1098;-79
2022/05/10 01:34:31;;;;;;;17.88;12.55;;;;;;;15.08;60.62;101374.50;694908;28;1215;-79
2022/05/10 01:34:57;;;;;;;16.08;11.90;;;;;;;15.09;60.60;101376.25;688218;28;1338;-80
2022/05/10 01:35:23;;;;;;;14.73;12.02;;;;;;;15.05;60.95;101366.53;688113;28;994;-80
2022/05/10 01:36:01;;;;;;;16.48;12.45;;;;;;;15.02;60.73;101367.38;688130;28;891;-79
2022/05/10 01:36:34;;;;;;;18.75;12.52;;;;;;;15.07;60.90;101376.22;686856;28;1434;-79
2022/05/10 01:36:59;;;;;;;20.20;13.30;;;;;;;15.07;60.96;101373.59;690466;28;1129;-79
2022/05/10 01:37:24;;;;;;;20.65;13.13;;;;;;;15.06;60.83;101363.94;687989;28;1147;-79
2022/05/10 01:37:51;;;;;;;17.65;12.65;;;;;;;15.02;61.15;101362.13;688030;28;1511;-79
2022/05/10 01:38:47;;;;;;;18.77;12.60;;;;;;;15.06;61.11;101363.94;693530;28;1425;-79
2022/05/10 01:39:30;;;;;;;20.08;12.93;;;;;;;15.13;61.16;101369.31;689554;28;1303;-80
2022/05/10 01:40:03;;;;;;;17.55;12.23;;;;;;;15.08;61.37;101356.97;690576;28;1248;-79
2022/05/10 01:40:37;;;;;;;21.40;12.70;;;;;;;15.13;61.08;101362.31;688014;28;1233;-79
2022/05/10 01:41:07;;;;;;;18.38;13.90;;;;;;;15.12;61.15;101357.03;682686;29;812;-79
2022/05/10 01:41:53;;;;;;;20.98;14.30;;;;;;;15.11;61.16;101355.28;685268;28;997;-79
2022/05/10 01:43:03;;;;;;;19.87;13.73;;;;;;;15.15;61.17;101365.88;687955;28;1140;-79
2022/05/10 01:43:53;;;;;;;15.75;11.90;;;;;;;15.13;61.03;101353.56;690531;28;1032;-80
2022/05/10 01:44:29;;;;;;;15.15;12.35;;;;;;;15.12;61.05;101357.03;690215;28;1225;-79
2022/05/10 01:44:53;;;;;;;17.10;12.65;;;;;;;15.11;61.17;101361.41;688070;28;1256;-79
2022/05/10 01:45:26;;;;;;;20.40;12.30;;;;;;;15.11;61.14;101360.53;690384;28;1143;-80
2022/05/10 01:45:53;;;;;;;18.13;11.82;;;;;;;15.08;61.09;101362.22;687747;28;1401;-79
2022/05/10 01:46:19;;;;;;;14.75;12.15;;;;;;;15.06;61.10;101356.06;688007;28;914;-80
2022/05/10 01:46:40;;;;;;;16.40;12.95;;;;;;;15.04;60.88;101365.66;687682;28;1293;-79
2022/05/10 01:47:31;;;;;;;16.35;12.88;;;;;;;14.99;61.20;101346.28;685434;28;736;-79
2022/05/10 01:47:58;;;;;;;16.27;12.00;;;;;;;14.98;60.85;101351.53;687973;28;793;-79
2022/05/10 01:48:21;;;;;;;14.98;11.55;;;;;;;15.00;61.25;101353.31;689588;28;1388;-79
2022/05/10 01:48:45;;;;;;;15.32;12.13;;;;;;;14.97;61.19;101358.50;692449;28;1362;-79
2022/05/10 01:49:12;;;;;;;15.70;12.13;;;;;;;15.00;61.10;101357.69;682475;29;1221;-79
2022/05/10 01:49:40;;;;;;;16.50;12.05;;;;;;;14.91;61.15;101342.63;690309;28;1016;-80
2022/05/10 01:50:15;;;;;;;17.33;12.52;;;;;;;14.92;61.17;101350.53;693252;28;1201;-79
2022/05/10 01:50:58;;;;;;;17.23;12.63;;;;;;;14.95;61.43;101354.97;693491;28;1164;-80
2022/05/10 01:51:25;;;;;;;17.02;12.15;;;;;;;14.92;61.04;101344.38;690586;28;1203;-79
2022/05/10 01:51:57;;;;;;;18.10;12.90;;;;;;;14.87;61.40;101339.03;688077;28;862;-80
2022/05/10 01:52:25;;;;;;;17.20;13.07;;;;;;;14.90;61.42;101348.75;690717;28;2012;-79
2022/05/10 01:53:04;;;;;;;17.77;13.43;;;;;;;14.93;61.41;101349.69;693389;28;1336;-79
2022/05/10 01:53:34;;;;;;;18.23;13.10;;;;;;;14.95;61.51;101347.09;687828;28;1961;-79
2022/05/10 01:53:55;;;;;;;17.20;12.73;;;;;;;14.93;61.63;101335.66;690718;28;926;-79
2022/05/10 01:54:40;;;;;;;16.57;13.10;;;;;;;14.92;61.56;101341.75;687996;28;990;-79
2022/05/10 01:55:25;;;;;;;16.52;13.00;;;;;;;14.88;61.60;101337.31;690739;28;835;-79
2022/05/10 01:55:50;;;;;;;16.02;12.77;;;;;;;14.88;61.49;101337.31;692058;28;1234;-79
2022/05/10 01:56:17;;;;;;;16.95;12.80;;;;;;;14.91;61.50;101348.78;693252;28;2109;-79
2022/05/10 01:56:37;;;;;;;16.58;12.50;;;;;;;14.82;61.68;101326.69;689593;28;1388;-79
2022/05/10 01:56:58;;;;;;;16.27;12.30;;;;;;;14.80;61.54;101335.44;693368;28;1178;-79
2022/05/10 01:57:19;;;;;;;18.48;12.50;;;;;;;14.86;61.31;101342.53;690719;28;1104;-80
2022/05/10 01:57:39;;;;;;;19.60;13.17;;;;;;;14.86;61.53;101347.78;690785;28;1080;-80
2022/05/10 01:58:05;;;;;;;18.27;13.02;;;;;;;14.78;61.43;101331.91;690818;28;835;-79
2022/05/10 01:58:28;;;;;;;15.10;12.40;;;;;;;14.85;61.62;101353.00;688007;28;1268;-79
2022/05/10 01:58:49;;;;;;;15.68;12.18;;;;;;;14.80;61.59;101348.56;693273;28;1378;-79
2022/05/10 01:59:10;;;;;;;16.65;12.60;;;;;;;14.72;61.74;101331.78;688032;28;1229;-79
2022/05/10 01:59:31;;;;;;;16.42;12.32;;;;;;;14.76;61.54;101338.84;684925;28;1088;-79
2022/05/10 01:59:57;;;;;;;15.10;11.98;;;;;;;14.71;61.64;101340.50;685303;28;791;-79
2022/05/10 02:00:26;;;;;;;15.13;12.25;;;;;;;14.73;61.33;101346.66;687874;28;1137;-80
2022/05/10 02:01:01;;;;;;;16.08;12.80;;;;;;;14.75;61.65;101339.69;688051;28;856;-79
2022/05/10 02:01:31;;;;;;;16.17;12.55;;;;;;;14.78;61.71;101352.91;682999;28;1340;-80
2022/05/10 02:01:55;;;;;;;16.38;12.63;;;;;;;14.73;61.70;101337.88;689045;28;1463;-79
2022/05/10 02:02:19;;;;;;;16.83;12.50;;;;;;;14.80;61.91;101345.03;690684;28;1491;-79
2022/05/10 02:03:05;;;;;;;17.00;12.60;;;;;;;14.83;61.80;101349.47;688012;28;1079;-79
2022/05/10 02:03:35;;;;;;;17.30;12.80;;;;;;;14.76;61.86;101333.59;687964;28;1487;-79
2022/05/10 02:04:27;;;;;;;15.90;12.70;;;;;;;14.84;61.76;101346.88;685397;28;1642;-80
2022/05/10 02:04:51;;;;;;;15.75;12.30;;;;;;;14.85;62.06;101345.13;679674;29;1258;-79
2022/05/10 02:05:19;;;;;;;15.02;12.43;;;;;;;14.82;61.85;101334.56;682697;29;1177;-79
2022/05/10 02:05:43;;;;;;;17.15;12.70;;;;;;;14.84;61.97;101341.63;687612;28;1202;-79
2022/05/10 02:06:35;;;;;;;18.83;12.63;;;;;;;14.85;61.98;101347.75;684842;28;1099;-79
2022/05/10 02:07:04;;;;;;;19.13;13.30;;;;;;;14.79;61.80;101332.75;688174;28;828;-79
2022/05/10 02:07:26;;;;;;;19.33;13.30;;;;;;;14.79;61.87;101333.66;685040;28;1287;-79
2022/05/10 02:07:53;;;;;;;15.73;12.13;;;;;;;14.79;61.84;101332.75;696187;28;1188;-80
2022/05/10 02:08:25;;;;;;;13.73;11.95;;;;;;;14.79;61.91;101336.28;690687;28;977;-79
2022/05/10 02:08:59;;;;;;;16.27;12.85;;;;;;;14.75;61.71;101331.81;685305;28;1341;-79
2022/05/10 02:09:40;;;;;;;18.73;13.32;;;;;;;14.82;61.90;101345.06;690581;28;1127;-79
2022/05/10 02:10:25;;;;;;;16.73;12.80;;;;;;;14.78;61.97;101342.41;685332;28;992;-80
2022/05/10 02:10:51;;;;;;;16.35;12.50;;;;;;;14.82;61.93;101334.56;682724;28;1228;-79
2022/05/10 02:11:16;;;;;;;17.83;12.35;;;;;;;14.89;61.57;101341.72;684868;28;1144;-79
2022/05/10 02:12:05;;;;;;;18.50;12.10;;;;;;;14.90;61.62;101343.47;687863;28;987;-79
2022/05/10 02:12:43;;;;;;;15.40;11.93;;;;;;;14.87;61.26;101340.81;687955;28;2362;-79
2022/05/10 02:13:19;;;;;;;14.13;11.68;;;;;;;14.87;61.50;101341.69;690090;28;1482;-79
2022/05/10 02:13:55;;;;;;;16.42;12.55;;;;;;;14.82;61.33;101329.31;690504;28;1068;-79
2022/05/10 02:14:27;;;;;;;16.38;12.85;;;;;;;14.86;61.28;101341.66;693418;28;1060;-79
2022/05/10 02:15:00;;;;;;;16.20;12.70;;;;;;;14.86;61.49;101344.28;685276;28;886;-79
2022/05/10 02:15:30;;;;;;;14.70;12.32;;;;;;;14.84;61.50;101339.00;689391;28;1390;-79
2022/05/10 02:15:55;;;;;;;17.23;12.20;;;;;;;14.78;61.56;101331.91;690639;28;838;-79
2022/05/10 02:16:35;;;;;;;18.20;12.55;;;;;;;14.80;61.32;101340.69;685303;28;1358;-79
2022/05/10 02:17:06;;;;;;;15.98;12.77;;;;;;;14.81;61.38;101349.44;690568;28;1118;-79
2022/05/10 02:17:36;;;;;;;16.33;12.65;;;;;;;14.79;61.40;101340.66;687946;28;1092;-79